sensor_id;sensor_type;location;lat;lon;timestamp;P1;durP1;ratioP1;P2;durP2;ratioP2
5085;SDS011;4715;51.660;7.082;2022-12-10T00:02:13;23.70;;;14.03;;
5085;SDS011;4715;51.660;7.082;2022-12-10T00:04:35;19.77;;;12.83;;
5085;SDS011;4715;51.660;7.082;2022-12-10T00:06:56;25.07;;;13.80;;
5085;SDS011;4715;51.660;7.082;2022-12-10T00:09:21;23.07;;;13.73;;
5085;SDS011;4715;51.660;7.082;2022-12-10T00:11:43;26.23;;;14.20;;
5085;SDS011;4715;51.660;7.082;2022-12-10T00:14:04;25.63;;;13.87;;
5085;SDS011;4715;51.660;7.082;2022-12-10T00:16:27;22.60;;;13.57;;
5085;SDS011;4715;51.660;7.082;2022-12-10T00:18:51;29.47;;;14.10;;
5085;SDS011;4715;51.660;7.082;2022-12-10T00:21:15;25.37;;;15.37;;
5085;SDS011;4715;51.660;7.082;2022-12-10T00:23:40;26.10;;;14.43;;
5085;SDS011;4715;51.660;7.082;2022-12-10T00:26:04;27.30;;;14.83;;
5085;SDS011;4715;51.660;7.082;2022-12-10T00:28:27;29.00;;;14.63;;
5085;SDS011;4715;51.660;7.082;2022-12-10T00:30:49;22.07;;;13.20;;
5085;SDS011;4715;51.660;7.082;2022-12-10T00:33:10;24.40;;;13.83;;
5085;SDS011;4715;51.660;7.082;2022-12-10T00:35:34;30.27;;;16.70;;
5085;SDS011;4715;51.660;7.082;2022-12-10T00:37:57;29.07;;;17.07;;
5085;SDS011;4715;51.660;7.082;2022-12-10T00:40:19;26.17;;;16.10;;
5085;SDS011;4715;51.660;7.082;2022-12-10T00:42:43;23.90;;;14.90;;
5085;SDS011;4715;51.660;7.082;2022-12-10T00:45:05;25.73;;;14.87;;
5085;SDS011;4715;51.660;7.082;2022-12-10T00:47:27;21.23;;;14.00;;
5085;SDS011;4715;51.660;7.082;2022-12-10T00:49:49;21.43;;;12.60;;
5085;SDS011;4715;51.660;7.082;2022-12-10T00:52:11;25.80;;;14.07;;
5085;SDS011;4715;51.660;7.082;2022-12-10T00:54:33;24.00;;;13.73;;
5085;SDS011;4715;51.660;7.082;2022-12-10T00:56:55;22.03;;;12.87;;
5085;SDS011;4715;51.660;7.082;2022-12-10T00:59:18;20.30;;;12.47;;
5085;SDS011;4715;51.660;7.082;2022-12-10T01:01:40;23.17;;;13.83;;
5085;SDS011;4715;51.660;7.082;2022-12-10T01:04:04;22.77;;;12.10;;
5085;SDS011;4715;51.660;7.082;2022-12-10T01:06:29;25.80;;;14.00;;
5085;SDS011;4715;51.660;7.082;2022-12-10T01:08:52;25.27;;;14.40;;
5085;SDS011;4715;51.660;7.082;2022-12-10T01:11:17;23.67;;;13.30;;
5085;SDS011;4715;51.660;7.082;2022-12-10T01:13:40;22.77;;;12.83;;
5085;SDS011;4715;51.660;7.082;2022-12-10T01:16:04;26.87;;;13.87;;
5085;SDS011;4715;51.660;7.082;2022-12-10T01:18:28;19.27;;;11.37;;
5085;SDS011;4715;51.660;7.082;2022-12-10T01:20:51;22.70;;;13.27;;
5085;SDS011;4715;51.660;7.082;2022-12-10T01:23:12;24.77;;;12.80;;
5085;SDS011;4715;51.660;7.082;2022-12-10T01:25:34;18.60;;;10.60;;
5085;SDS011;4715;51.660;7.082;2022-12-10T01:27:56;25.20;;;12.97;;
5085;SDS011;4715;51.660;7.082;2022-12-10T01:30:18;23.30;;;12.47;;
5085;SDS011;4715;51.660;7.082;2022-12-10T01:32:41;23.30;;;12.40;;
5085;SDS011;4715;51.660;7.082;2022-12-10T01:35:03;19.53;;;12.03;;
5085;SDS011;4715;51.660;7.082;2022-12-10T01:37:25;21.93;;;12.20;;
5085;SDS011;4715;51.660;7.082;2022-12-10T01:39:47;20.73;;;11.63;;
5085;SDS011;4715;51.660;7.082;2022-12-10T01:42:09;23.23;;;11.90;;
5085;SDS011;4715;51.660;7.082;2022-12-10T01:44:55;20.30;;;12.67;;
5085;SDS011;4715;51.660;7.082;2022-12-10T01:47:23;22.53;;;13.00;;
5085;SDS011;4715;51.660;7.082;2022-12-10T01:49:46;20.80;;;11.67;;
5085;SDS011;4715;51.660;7.082;2022-12-10T01:52:08;19.80;;;11.37;;
5085;SDS011;4715;51.660;7.082;2022-12-10T01:54:32;22.20;;;12.30;;
5085;SDS011;4715;51.660;7.082;2022-12-10T01:57:00;19.30;;;12.60;;
5085;SDS011;4715;51.660;7.082;2022-12-10T01:59:24;25.40;;;14.40;;
5085;SDS011;4715;51.660;7.082;2022-12-10T02:01:49;18.83;;;12.30;;
5085;SDS011;4715;51.660;7.082;2022-12-10T02:04:20;21.63;;;12.90;;
5085;SDS011;4715;51.660;7.082;2022-12-10T02:06:53;19.70;;;12.63;;
5085;SDS011;4715;51.660;7.082;2022-12-10T02:09:23;21.83;;;11.50;;
5085;SDS011;4715;51.660;7.082;2022-12-10T02:11:55;26.10;;;12.57;;
5085;SDS011;4715;51.660;7.082;2022-12-10T02:14:25;19.67;;;11.10;;
5085;SDS011;4715;51.660;7.082;2022-12-10T02:16:51;20.60;;;12.10;;
5085;SDS011;4715;51.660;7.082;2022-12-10T02:19:18;27.80;;;12.40;;
5085;SDS011;4715;51.660;7.082;2022-12-10T02:21:52;21.40;;;12.23;;
5085;SDS011;4715;51.660;7.082;2022-12-10T02:24:16;21.30;;;11.57;;
5085;SDS011;4715;51.660;7.082;2022-12-10T02:26:43;17.97;;;11.07;;
5085;SDS011;4715;51.660;7.082;2022-12-10T02:29:12;19.83;;;10.10;;
5085;SDS011;4715;51.660;7.082;2022-12-10T02:31:36;15.23;;;10.40;;
5085;SDS011;4715;51.660;7.082;2022-12-10T02:34:01;16.80;;;10.53;;
5085;SDS011;4715;51.660;7.082;2022-12-10T02:36:29;18.93;;;11.57;;
5085;SDS011;4715;51.660;7.082;2022-12-10T02:38:54;17.30;;;10.37;;
5085;SDS011;4715;51.660;7.082;2022-12-10T02:41:18;20.17;;;11.57;;
5085;SDS011;4715;51.660;7.082;2022-12-10T02:43:43;18.50;;;10.73;;
5085;SDS011;4715;51.660;7.082;2022-12-10T02:46:08;23.93;;;12.23;;
5085;SDS011;4715;51.660;7.082;2022-12-10T02:48:30;21.83;;;12.30;;
5085;SDS011;4715;51.660;7.082;2022-12-10T02:50:53;23.07;;;12.30;;
5085;SDS011;4715;51.660;7.082;2022-12-10T02:53:15;20.43;;;12.80;;
5085;SDS011;4715;51.660;7.082;2022-12-10T02:55:41;22.97;;;12.70;;
5085;SDS011;4715;51.660;7.082;2022-12-10T02:58:20;17.77;;;11.80;;
5085;SDS011;4715;51.660;7.082;2022-12-10T03:00:50;20.47;;;11.63;;
5085;SDS011;4715;51.660;7.082;2022-12-10T03:05:59;21.97;;;12.00;;
5085;SDS011;4715;51.660;7.082;2022-12-10T03:08:31;22.40;;;14.37;;
5085;SDS011;4715;51.660;7.082;2022-12-10T03:10:57;20.67;;;11.00;;
5085;SDS011;4715;51.660;7.082;2022-12-10T03:13:27;21.43;;;12.70;;
5085;SDS011;4715;51.660;7.082;2022-12-10T03:15:52;19.27;;;11.73;;
5085;SDS011;4715;51.660;7.082;2022-12-10T03:18:16;19.40;;;11.77;;
5085;SDS011;4715;51.660;7.082;2022-12-10T03:20:42;20.00;;;12.37;;
5085;SDS011;4715;51.660;7.082;2022-12-10T03:23:08;22.63;;;12.77;;
5085;SDS011;4715;51.660;7.082;2022-12-10T03:25:33;16.30;;;11.87;;
5085;SDS011;4715;51.660;7.082;2022-12-10T03:27:56;22.57;;;12.53;;
5085;SDS011;4715;51.660;7.082;2022-12-10T03:30:20;19.70;;;11.33;;
5085;SDS011;4715;51.660;7.082;2022-12-10T03:32:46;22.80;;;12.80;;
5085;SDS011;4715;51.660;7.082;2022-12-10T03:35:08;23.40;;;12.17;;
5085;SDS011;4715;51.660;7.082;2022-12-10T03:37:32;19.67;;;11.40;;
5085;SDS011;4715;51.660;7.082;2022-12-10T03:39:55;23.63;;;12.33;;
5085;SDS011;4715;51.660;7.082;2022-12-10T03:42:18;18.07;;;11.20;;
5085;SDS011;4715;51.660;7.082;2022-12-10T03:44:39;19.63;;;11.90;;
5085;SDS011;4715;51.660;7.082;2022-12-10T03:47:02;20.70;;;11.70;;
5085;SDS011;4715;51.660;7.082;2022-12-10T03:49:25;14.00;;;9.90;;
5085;SDS011;4715;51.660;7.082;2022-12-10T03:51:47;15.30;;;10.30;;
5085;SDS011;4715;51.660;7.082;2022-12-10T03:54:10;15.57;;;10.27;;
5085;SDS011;4715;51.660;7.082;2022-12-10T03:56:32;15.93;;;9.80;;
5085;SDS011;4715;51.660;7.082;2022-12-10T03:58:54;18.40;;;10.07;;
5085;SDS011;4715;51.660;7.082;2022-12-10T04:01:16;15.73;;;9.67;;
5085;SDS011;4715;51.660;7.082;2022-12-10T04:03:39;17.37;;;10.03;;
5085;SDS011;4715;51.660;7.082;2022-12-10T04:06:02;15.07;;;8.97;;
5085;SDS011;4715;51.660;7.082;2022-12-10T04:08:24;16.97;;;9.97;;
5085;SDS011;4715;51.660;7.082;2022-12-10T04:10:47;14.23;;;9.70;;
5085;SDS011;4715;51.660;7.082;2022-12-10T04:13:09;19.00;;;9.93;;
5085;SDS011;4715;51.660;7.082;2022-12-10T04:15:48;18.27;;;9.83;;
5085;SDS011;4715;51.660;7.082;2022-12-10T04:18:27;13.40;;;8.63;;
5085;SDS011;4715;51.660;7.082;2022-12-10T04:20:49;15.43;;;9.63;;
5085;SDS011;4715;51.660;7.082;2022-12-10T04:23:28;19.00;;;9.43;;
5085;SDS011;4715;51.660;7.082;2022-12-10T04:26:09;15.80;;;9.60;;
5085;SDS011;4715;51.660;7.082;2022-12-10T04:28:48;18.50;;;10.30;;
5085;SDS011;4715;51.660;7.082;2022-12-10T04:31:10;14.43;;;8.27;;
5085;SDS011;4715;51.660;7.082;2022-12-10T04:33:32;18.40;;;9.87;;
5085;SDS011;4715;51.660;7.082;2022-12-10T04:35:54;14.20;;;8.47;;
5085;SDS011;4715;51.660;7.082;2022-12-10T04:38:15;12.70;;;9.17;;
5085;SDS011;4715;51.660;7.082;2022-12-10T04:40:37;15.67;;;9.57;;
5085;SDS011;4715;51.660;7.082;2022-12-10T04:43:00;18.50;;;10.43;;
5085;SDS011;4715;51.660;7.082;2022-12-10T04:45:22;13.70;;;8.70;;
5085;SDS011;4715;51.660;7.082;2022-12-10T04:47:44;15.47;;;9.60;;
5085;SDS011;4715;51.660;7.082;2022-12-10T04:50:06;14.73;;;9.10;;
5085;SDS011;4715;51.660;7.082;2022-12-10T04:52:28;15.30;;;8.73;;
5085;SDS011;4715;51.660;7.082;2022-12-10T04:54:50;16.87;;;10.27;;
5085;SDS011;4715;51.660;7.082;2022-12-10T04:57:12;16.97;;;9.60;;
5085;SDS011;4715;51.660;7.082;2022-12-10T04:59:36;17.73;;;10.27;;
5085;SDS011;4715;51.660;7.082;2022-12-10T05:01:58;14.93;;;9.90;;
5085;SDS011;4715;51.660;7.082;2022-12-10T05:04:20;16.60;;;10.17;;
5085;SDS011;4715;51.660;7.082;2022-12-10T05:06:41;19.40;;;11.43;;
5085;SDS011;4715;51.660;7.082;2022-12-10T05:09:04;18.13;;;10.23;;
5085;SDS011;4715;51.660;7.082;2022-12-10T05:11:27;17.57;;;10.17;;
5085;SDS011;4715;51.660;7.082;2022-12-10T05:13:50;20.10;;;9.83;;
5085;SDS011;4715;51.660;7.082;2022-12-10T05:16:15;15.93;;;9.90;;
5085;SDS011;4715;51.660;7.082;2022-12-10T05:18:39;15.70;;;9.83;;
5085;SDS011;4715;51.660;7.082;2022-12-10T05:21:02;14.80;;;9.30;;
5085;SDS011;4715;51.660;7.082;2022-12-10T05:23:27;17.90;;;11.40;;
5085;SDS011;4715;51.660;7.082;2022-12-10T05:25:47;17.67;;;11.37;;
5085;SDS011;4715;51.660;7.082;2022-12-10T05:28:13;17.53;;;10.27;;
5085;SDS011;4715;51.660;7.082;2022-12-10T05:30:35;21.47;;;11.30;;
5085;SDS011;4715;51.660;7.082;2022-12-10T05:32:58;16.20;;;9.10;;
5085;SDS011;4715;51.660;7.082;2022-12-10T05:35:20;17.23;;;10.40;;
5085;SDS011;4715;51.660;7.082;2022-12-10T05:37:42;15.67;;;9.63;;
5085;SDS011;4715;51.660;7.082;2022-12-10T05:40:04;14.67;;;9.27;;
5085;SDS011;4715;51.660;7.082;2022-12-10T05:42:27;17.73;;;9.03;;
5085;SDS011;4715;51.660;7.082;2022-12-10T05:44:49;13.10;;;8.97;;
5085;SDS011;4715;51.660;7.082;2022-12-10T05:47:11;15.30;;;9.83;;
5085;SDS011;4715;51.660;7.082;2022-12-10T05:49:34;19.83;;;10.27;;
5085;SDS011;4715;51.660;7.082;2022-12-10T05:51:56;18.50;;;10.40;;
5085;SDS011;4715;51.660;7.082;2022-12-10T05:54:18;17.60;;;10.83;;
5085;SDS011;4715;51.660;7.082;2022-12-10T05:56:39;19.67;;;11.00;;
5085;SDS011;4715;51.660;7.082;2022-12-10T05:59:02;23.90;;;14.43;;
5085;SDS011;4715;51.660;7.082;2022-12-10T06:01:25;25.70;;;13.73;;
5085;SDS011;4715;51.660;7.082;2022-12-10T06:03:48;25.80;;;14.43;;
5085;SDS011;4715;51.660;7.082;2022-12-10T06:06:13;32.93;;;17.20;;
5085;SDS011;4715;51.660;7.082;2022-12-10T06:08:40;26.50;;;15.37;;
5085;SDS011;4715;51.660;7.082;2022-12-10T06:11:02;36.00;;;17.43;;
5085;SDS011;4715;51.660;7.082;2022-12-10T06:13:26;30.43;;;17.07;;
5085;SDS011;4715;51.660;7.082;2022-12-10T06:15:47;34.90;;;17.70;;
5085;SDS011;4715;51.660;7.082;2022-12-10T06:18:09;30.90;;;17.00;;
5085;SDS011;4715;51.660;7.082;2022-12-10T06:20:31;30.07;;;15.50;;
5085;SDS011;4715;51.660;7.082;2022-12-10T06:22:54;30.43;;;16.80;;
5085;SDS011;4715;51.660;7.082;2022-12-10T06:25:16;26.80;;;16.70;;
5085;SDS011;4715;51.660;7.082;2022-12-10T06:27:38;30.73;;;16.20;;
5085;SDS011;4715;51.660;7.082;2022-12-10T06:30:00;31.93;;;15.40;;
5085;SDS011;4715;51.660;7.082;2022-12-10T06:32:22;25.80;;;14.77;;
5085;SDS011;4715;51.660;7.082;2022-12-10T06:34:43;25.60;;;14.30;;
5085;SDS011;4715;51.660;7.082;2022-12-10T06:37:06;20.97;;;12.00;;
5085;SDS011;4715;51.660;7.082;2022-12-10T06:39:29;22.53;;;14.20;;
5085;SDS011;4715;51.660;7.082;2022-12-10T06:41:51;22.00;;;11.90;;
5085;SDS011;4715;51.660;7.082;2022-12-10T06:44:13;26.90;;;14.70;;
5085;SDS011;4715;51.660;7.082;2022-12-10T06:46:35;28.97;;;14.67;;
5085;SDS011;4715;51.660;7.082;2022-12-10T06:48:57;27.50;;;14.97;;
5085;SDS011;4715;51.660;7.082;2022-12-10T06:51:19;22.53;;;13.40;;
5085;SDS011;4715;51.660;7.082;2022-12-10T06:53:41;28.87;;;16.30;;
5085;SDS011;4715;51.660;7.082;2022-12-10T06:56:05;32.70;;;18.03;;
5085;SDS011;4715;51.660;7.082;2022-12-10T06:58:30;31.43;;;17.73;;
5085;SDS011;4715;51.660;7.082;2022-12-10T07:00:52;33.80;;;18.07;;
5085;SDS011;4715;51.660;7.082;2022-12-10T07:03:14;30.30;;;15.77;;
5085;SDS011;4715;51.660;7.082;2022-12-10T07:05:36;25.23;;;14.63;;
5085;SDS011;4715;51.660;7.082;2022-12-10T07:07:58;29.47;;;16.13;;
5085;SDS011;4715;51.660;7.082;2022-12-10T07:10:20;25.07;;;14.50;;
5085;SDS011;4715;51.660;7.082;2022-12-10T07:12:43;20.93;;;13.43;;
5085;SDS011;4715;51.660;7.082;2022-12-10T07:15:05;27.17;;;13.30;;
5085;SDS011;4715;51.660;7.082;2022-12-10T07:17:28;27.53;;;15.20;;
5085;SDS011;4715;51.660;7.082;2022-12-10T07:19:50;23.37;;;13.53;;
5085;SDS011;4715;51.660;7.082;2022-12-10T07:22:12;26.90;;;14.40;;
5085;SDS011;4715;51.660;7.082;2022-12-10T07:24:36;22.40;;;13.10;;
5085;SDS011;4715;51.660;7.082;2022-12-10T07:27:00;31.33;;;16.73;;
5085;SDS011;4715;51.660;7.082;2022-12-10T07:29:23;24.80;;;15.70;;
5085;SDS011;4715;51.660;7.082;2022-12-10T07:31:46;35.30;;;18.20;;
5085;SDS011;4715;51.660;7.082;2022-12-10T07:34:11;31.20;;;19.40;;
5085;SDS011;4715;51.660;7.082;2022-12-10T07:36:33;33.53;;;18.20;;
5085;SDS011;4715;51.660;7.082;2022-12-10T07:38:55;39.40;;;20.37;;
5085;SDS011;4715;51.660;7.082;2022-12-10T07:41:17;49.80;;;22.60;;
5085;SDS011;4715;51.660;7.082;2022-12-10T07:43:40;44.50;;;22.47;;
5085;SDS011;4715;51.660;7.082;2022-12-10T07:46:05;45.83;;;22.97;;
5085;SDS011;4715;51.660;7.082;2022-12-10T07:48:29;45.60;;;22.57;;
5085;SDS011;4715;51.660;7.082;2022-12-10T07:50:55;44.50;;;23.37;;
5085;SDS011;4715;51.660;7.082;2022-12-10T07:53:17;45.80;;;22.50;;
5085;SDS011;4715;51.660;7.082;2022-12-10T07:55:39;43.70;;;21.40;;
5085;SDS011;4715;51.660;7.082;2022-12-10T07:58:02;47.67;;;22.50;;
5085;SDS011;4715;51.660;7.082;2022-12-10T08:00:25;54.33;;;23.40;;
5085;SDS011;4715;51.660;7.082;2022-12-10T08:02:49;42.23;;;20.80;;
5085;SDS011;4715;51.660;7.082;2022-12-10T08:05:11;50.07;;;23.60;;
5085;SDS011;4715;51.660;7.082;2022-12-10T08:07:34;43.03;;;21.13;;
5085;SDS011;4715;51.660;7.082;2022-12-10T08:09:56;47.07;;;20.60;;
5085;SDS011;4715;51.660;7.082;2022-12-10T08:12:19;55.67;;;23.67;;
5085;SDS011;4715;51.660;7.082;2022-12-10T08:14:41;68.70;;;25.97;;
5085;SDS011;4715;51.660;7.082;2022-12-10T08:17:05;66.10;;;26.40;;
5085;SDS011;4715;51.660;7.082;2022-12-10T08:19:29;67.23;;;25.20;;
5085;SDS011;4715;51.660;7.082;2022-12-10T08:21:52;61.93;;;24.90;;
5085;SDS011;4715;51.660;7.082;2022-12-10T08:24:15;80.67;;;30.40;;
5085;SDS011;4715;51.660;7.082;2022-12-10T08:26:42;66.50;;;28.67;;
5085;SDS011;4715;51.660;7.082;2022-12-10T08:29:07;60.70;;;23.53;;
5085;SDS011;4715;51.660;7.082;2022-12-10T08:31:29;61.73;;;22.73;;
5085;SDS011;4715;51.660;7.082;2022-12-10T08:33:52;55.97;;;25.10;;
5085;SDS011;4715;51.660;7.082;2022-12-10T08:36:19;59.40;;;22.83;;
5085;SDS011;4715;51.660;7.082;2022-12-10T08:38:41;65.70;;;24.87;;
5085;SDS011;4715;51.660;7.082;2022-12-10T08:41:05;58.17;;;26.90;;
5085;SDS011;4715;51.660;7.082;2022-12-10T08:43:28;64.53;;;23.00;;
5085;SDS011;4715;51.660;7.082;2022-12-10T08:45:50;71.90;;;28.90;;
5085;SDS011;4715;51.660;7.082;2022-12-10T08:48:14;67.70;;;27.73;;
5085;SDS011;4715;51.660;7.082;2022-12-10T08:50:39;68.80;;;27.67;;
5085;SDS011;4715;51.660;7.082;2022-12-10T08:53:03;80.97;;;29.87;;
5085;SDS011;4715;51.660;7.082;2022-12-10T08:55:28;72.60;;;28.50;;
5085;SDS011;4715;51.660;7.082;2022-12-10T08:57:51;64.43;;;28.27;;
5085;SDS011;4715;51.660;7.082;2022-12-10T09:00:15;89.93;;;33.97;;
5085;SDS011;4715;51.660;7.082;2022-12-10T09:02:39;92.17;;;33.83;;
5085;SDS011;4715;51.660;7.082;2022-12-10T09:05:02;86.73;;;32.10;;
5085;SDS011;4715;51.660;7.082;2022-12-10T09:07:29;84.13;;;35.77;;
5085;SDS011;4715;51.660;7.082;2022-12-10T09:09:53;79.70;;;33.10;;
5085;SDS011;4715;51.660;7.082;2022-12-10T09:12:18;92.17;;;35.33;;
5085;SDS011;4715;51.660;7.082;2022-12-10T09:14:40;88.90;;;34.60;;
5085;SDS011;4715;51.660;7.082;2022-12-10T09:17:03;85.07;;;33.70;;
5085;SDS011;4715;51.660;7.082;2022-12-10T09:19:28;80.13;;;33.27;;
5085;SDS011;4715;51.660;7.082;2022-12-10T09:21:52;87.73;;;38.57;;
5085;SDS011;4715;51.660;7.082;2022-12-10T09:24:17;87.83;;;33.10;;
5085;SDS011;4715;51.660;7.082;2022-12-10T09:26:40;93.93;;;34.63;;
5085;SDS011;4715;51.660;7.082;2022-12-10T09:29:02;93.53;;;33.27;;
5085;SDS011;4715;51.660;7.082;2022-12-10T09:31:27;104.63;;;38.57;;
5085;SDS011;4715;51.660;7.082;2022-12-10T09:33:51;94.23;;;35.20;;
5085;SDS011;4715;51.660;7.082;2022-12-10T09:36:13;90.53;;;34.83;;
5085;SDS011;4715;51.660;7.082;2022-12-10T09:38:37;76.47;;;34.57;;
5085;SDS011;4715;51.660;7.082;2022-12-10T09:41:01;78.37;;;32.93;;
5085;SDS011;4715;51.660;7.082;2022-12-10T09:43:32;85.77;;;33.90;;
5085;SDS011;4715;51.660;7.082;2022-12-10T09:46:08;73.33;;;30.67;;
5085;SDS011;4715;51.660;7.082;2022-12-10T09:48:40;61.67;;;29.20;;
5085;SDS011;4715;51.660;7.082;2022-12-10T09:51:13;75.93;;;33.77;;
5085;SDS011;4715;51.660;7.082;2022-12-10T09:53:44;99.13;;;36.23;;
5085;SDS011;4715;51.660;7.082;2022-12-10T09:56:14;92.27;;;35.13;;
5085;SDS011;4715;51.660;7.082;2022-12-10T09:58:47;82.60;;;34.50;;
5085;SDS011;4715;51.660;7.082;2022-12-10T10:01:12;91.97;;;38.10;;
5085;SDS011;4715;51.660;7.082;2022-12-10T10:03:40;83.50;;;36.50;;
5085;SDS011;4715;51.660;7.082;2022-12-10T10:06:08;91.13;;;39.30;;
5085;SDS011;4715;51.660;7.082;2022-12-10T10:08:36;89.37;;;37.03;;
5085;SDS011;4715;51.660;7.082;2022-12-10T10:11:05;112.23;;;40.43;;
5085;SDS011;4715;51.660;7.082;2022-12-10T10:13:34;95.20;;;36.90;;
5085;SDS011;4715;51.660;7.082;2022-12-10T10:16:11;90.63;;;39.10;;
5085;SDS011;4715;51.660;7.082;2022-12-10T10:18:43;101.80;;;42.00;;
5085;SDS011;4715;51.660;7.082;2022-12-10T10:21:15;95.73;;;39.43;;
5085;SDS011;4715;51.660;7.082;2022-12-10T10:23:43;96.63;;;37.03;;
5085;SDS011;4715;51.660;7.082;2022-12-10T10:26:07;97.17;;;38.37;;
5085;SDS011;4715;51.660;7.082;2022-12-10T10:28:29;85.97;;;35.87;;
5085;SDS011;4715;51.660;7.082;2022-12-10T10:30:54;92.33;;;36.67;;
5085;SDS011;4715;51.660;7.082;2022-12-10T10:33:20;83.30;;;36.73;;
5085;SDS011;4715;51.660;7.082;2022-12-10T10:35:52;106.23;;;39.53;;
5085;SDS011;4715;51.660;7.082;2022-12-10T10:38:20;95.13;;;37.37;;
5085;SDS011;4715;51.660;7.082;2022-12-10T10:40:49;89.83;;;38.50;;
5085;SDS011;4715;51.660;7.082;2022-12-10T10:43:14;98.40;;;39.60;;
5085;SDS011;4715;51.660;7.082;2022-12-10T10:45:42;95.77;;;38.30;;
5085;SDS011;4715;51.660;7.082;2022-12-10T10:48:12;92.90;;;37.30;;
5085;SDS011;4715;51.660;7.082;2022-12-10T10:50:39;98.17;;;38.00;;
5085;SDS011;4715;51.660;7.082;2022-12-10T10:53:16;96.67;;;39.40;;
5085;SDS011;4715;51.660;7.082;2022-12-10T10:55:48;90.70;;;39.17;;
5085;SDS011;4715;51.660;7.082;2022-12-10T10:58:16;93.30;;;38.67;;
5085;SDS011;4715;51.660;7.082;2022-12-10T11:00:40;96.37;;;39.00;;
5085;SDS011;4715;51.660;7.082;2022-12-10T11:03:04;97.23;;;37.90;;
5085;SDS011;4715;51.660;7.082;2022-12-10T11:05:38;104.40;;;41.17;;
5085;SDS011;4715;51.660;7.082;2022-12-10T11:08:00;111.23;;;42.00;;
5085;SDS011;4715;51.660;7.082;2022-12-10T11:10:24;89.63;;;40.37;;
5085;SDS011;4715;51.660;7.082;2022-12-10T11:13:18;95.87;;;36.50;;
5085;SDS011;4715;51.660;7.082;2022-12-10T11:15:43;90.17;;;37.03;;
5085;SDS011;4715;51.660;7.082;2022-12-10T11:18:20;86.40;;;34.87;;
5085;SDS011;4715;51.660;7.082;2022-12-10T11:20:48;87.10;;;36.00;;
5085;SDS011;4715;51.660;7.082;2022-12-10T11:23:21;82.67;;;33.63;;
5085;SDS011;4715;51.660;7.082;2022-12-10T11:25:45;90.47;;;36.07;;
5085;SDS011;4715;51.660;7.082;2022-12-10T11:28:22;89.37;;;34.00;;
5085;SDS011;4715;51.660;7.082;2022-12-10T11:31:05;103.30;;;40.80;;
5085;SDS011;4715;51.660;7.082;2022-12-10T11:33:42;97.37;;;39.70;;
5085;SDS011;4715;51.660;7.082;2022-12-10T11:36:13;122.97;;;43.10;;
5085;SDS011;4715;51.660;7.082;2022-12-10T11:38:50;103.70;;;40.87;;
5085;SDS011;4715;51.660;7.082;2022-12-10T11:41:26;82.83;;;33.30;;
5085;SDS011;4715;51.660;7.082;2022-12-10T11:43:59;89.03;;;35.87;;
5085;SDS011;4715;51.660;7.082;2022-12-10T11:46:39;91.63;;;36.33;;
5085;SDS011;4715;51.660;7.082;2022-12-10T11:49:18;90.00;;;36.30;;
5085;SDS011;4715;51.660;7.082;2022-12-10T11:51:51;93.10;;;36.57;;
5085;SDS011;4715;51.660;7.082;2022-12-10T11:54:29;90.27;;;39.30;;
5085;SDS011;4715;51.660;7.082;2022-12-10T11:57:02;100.27;;;38.27;;
5085;SDS011;4715;51.660;7.082;2022-12-10T11:59:31;88.33;;;36.87;;
5085;SDS011;4715;51.660;7.082;2022-12-10T12:02:05;79.00;;;33.40;;
5085;SDS011;4715;51.660;7.082;2022-12-10T12:04:47;77.03;;;33.60;;
5085;SDS011;4715;51.660;7.082;2022-12-10T12:10:16;74.03;;;32.00;;
5085;SDS011;4715;51.660;7.082;2022-12-10T12:12:57;65.07;;;28.23;;
5085;SDS011;4715;51.660;7.082;2022-12-10T12:15:32;66.23;;;29.53;;
5085;SDS011;4715;51.660;7.082;2022-12-10T12:18:01;70.30;;;29.90;;
5085;SDS011;4715;51.660;7.082;2022-12-10T12:20:29;74.43;;;31.80;;
5085;SDS011;4715;51.660;7.082;2022-12-10T12:22:57;73.83;;;30.53;;
5085;SDS011;4715;51.660;7.082;2022-12-10T12:25:24;78.60;;;31.97;;
5085;SDS011;4715;51.660;7.082;2022-12-10T12:27:55;62.57;;;28.77;;
5085;SDS011;4715;51.660;7.082;2022-12-10T12:30:22;59.97;;;26.60;;
5085;SDS011;4715;51.660;7.082;2022-12-10T12:32:49;62.77;;;31.07;;
5085;SDS011;4715;51.660;7.082;2022-12-10T12:35:19;55.53;;;25.93;;
5085;SDS011;4715;51.660;7.082;2022-12-10T12:37:50;61.50;;;28.90;;
5085;SDS011;4715;51.660;7.082;2022-12-10T12:40:23;69.33;;;29.57;;
5085;SDS011;4715;51.660;7.082;2022-12-10T12:42:52;63.60;;;27.73;;
5085;SDS011;4715;51.660;7.082;2022-12-10T12:45:20;64.50;;;26.90;;
5085;SDS011;4715;51.660;7.082;2022-12-10T12:47:53;64.13;;;26.77;;
5085;SDS011;4715;51.660;7.082;2022-12-10T12:50:24;65.90;;;27.20;;
5085;SDS011;4715;51.660;7.082;2022-12-10T12:52:50;68.70;;;28.60;;
5085;SDS011;4715;51.660;7.082;2022-12-10T12:55:16;63.43;;;28.00;;
5085;SDS011;4715;51.660;7.082;2022-12-10T12:57:43;59.27;;;27.37;;
5085;SDS011;4715;51.660;7.082;2022-12-10T13:00:10;62.73;;;27.20;;
5085;SDS011;4715;51.660;7.082;2022-12-10T13:02:44;69.97;;;30.07;;
5085;SDS011;4715;51.660;7.082;2022-12-10T13:05:16;73.93;;;32.30;;
5085;SDS011;4715;51.660;7.082;2022-12-10T13:10:44;60.93;;;27.97;;
5085;SDS011;4715;51.660;7.082;2022-12-10T13:13:22;67.30;;;30.03;;
5085;SDS011;4715;51.660;7.082;2022-12-10T13:15:46;66.33;;;26.13;;
5085;SDS011;4715;51.660;7.082;2022-12-10T13:18:33;58.87;;;27.60;;
5085;SDS011;4715;51.660;7.082;2022-12-10T13:21:16;73.93;;;27.70;;
5085;SDS011;4715;51.660;7.082;2022-12-10T13:24:09;65.67;;;27.13;;
5085;SDS011;4715;51.660;7.082;2022-12-10T13:26:33;52.50;;;23.93;;
5085;SDS011;4715;51.660;7.082;2022-12-10T13:29:11;54.87;;;25.63;;
5085;SDS011;4715;51.660;7.082;2022-12-10T13:31:56;49.10;;;21.17;;
5085;SDS011;4715;51.660;7.082;2022-12-10T13:34:29;51.83;;;22.73;;
5085;SDS011;4715;51.660;7.082;2022-12-10T13:37:14;49.73;;;21.97;;
5085;SDS011;4715;51.660;7.082;2022-12-10T13:40:09;49.20;;;22.40;;
5085;SDS011;4715;51.660;7.082;2022-12-10T13:42:43;39.20;;;20.37;;
5085;SDS011;4715;51.660;7.082;2022-12-10T13:45:28;59.73;;;24.27;;
5085;SDS011;4715;51.660;7.082;2022-12-10T13:48:15;54.23;;;25.70;;
5085;SDS011;4715;51.660;7.082;2022-12-10T13:51:01;63.17;;;29.47;;
5085;SDS011;4715;51.660;7.082;2022-12-10T13:53:34;55.80;;;26.40;;
5085;SDS011;4715;51.660;7.082;2022-12-10T13:56:11;59.93;;;27.00;;
5085;SDS011;4715;51.660;7.082;2022-12-10T13:58:45;53.37;;;25.93;;
5085;SDS011;4715;51.660;7.082;2022-12-10T14:01:28;59.10;;;26.93;;
5085;SDS011;4715;51.660;7.082;2022-12-10T14:04:11;63.43;;;29.43;;
5085;SDS011;4715;51.660;7.082;2022-12-10T14:06:47;58.53;;;27.97;;
5085;SDS011;4715;51.660;7.082;2022-12-10T14:09:16;54.57;;;25.90;;
5085;SDS011;4715;51.660;7.082;2022-12-10T14:11:46;57.40;;;25.80;;
5085;SDS011;4715;51.660;7.082;2022-12-10T14:14:14;53.83;;;26.90;;
5085;SDS011;4715;51.660;7.082;2022-12-10T14:16:44;58.20;;;26.80;;
5085;SDS011;4715;51.660;7.082;2022-12-10T14:19:08;58.77;;;27.17;;
5085;SDS011;4715;51.660;7.082;2022-12-10T14:21:34;59.50;;;26.40;;
5085;SDS011;4715;51.660;7.082;2022-12-10T14:23:58;52.53;;;25.03;;
5085;SDS011;4715;51.660;7.082;2022-12-10T14:26:22;48.40;;;24.30;;
5085;SDS011;4715;51.660;7.082;2022-12-10T14:28:49;53.97;;;25.63;;
5085;SDS011;4715;51.660;7.082;2022-12-10T14:31:16;51.60;;;24.63;;
5085;SDS011;4715;51.660;7.082;2022-12-10T14:33:46;57.03;;;26.50;;
5085;SDS011;4715;51.660;7.082;2022-12-10T14:36:19;47.60;;;22.83;;
5085;SDS011;4715;51.660;7.082;2022-12-10T14:38:51;57.93;;;25.83;;
5085;SDS011;4715;51.660;7.082;2022-12-10T14:41:13;54.57;;;26.17;;
5085;SDS011;4715;51.660;7.082;2022-12-10T14:43:39;47.33;;;21.90;;
5085;SDS011;4715;51.660;7.082;2022-12-10T14:46:06;41.87;;;19.53;;
5085;SDS011;4715;51.660;7.082;2022-12-10T14:48:39;48.80;;;20.97;;
5085;SDS011;4715;51.660;7.082;2022-12-10T14:51:04;43.73;;;22.63;;
5085;SDS011;4715;51.660;7.082;2022-12-10T14:53:35;46.80;;;22.67;;